sensor_id;sensor_type;location;lat;lon;timestamp;pressure;altitude;pressure_sealevel;temperature;humidity
33781;BME280;20097;50.832;19.100;2023-02-08T00:01:23;100791.00;;;-2.40;100.00
33781;BME280;20097;50.832;19.100;2023-02-08T00:06:28;100801.00;;;-2.30;100.00
33781;BME280;20097;50.832;19.100;2023-02-08T00:11:35;100806.13;;;-2.30;100.00
33781;BME280;20097;50.832;19.100;2023-02-08T00:16:39;100809.69;;;-2.37;100.00
33781;BME280;20097;50.832;19.100;2023-02-08T00:21:43;100796.03;;;-2.36;100.00
33781;BME280;20097;50.832;19.100;2023-02-08T00:26:49;100788.50;;;-2.43;100.00
33781;BME280;20097;50.832;19.100;2023-02-08T00:31:53;100796.28;;;-2.48;100.00
33781;BME280;20097;50.832;19.100;2023-02-08T00:36:58;100790.28;;;-2.47;100.00
33781;BME280;20097;50.832;19.100;2023-02-08T00:42:04;100787.75;;;-2.48;100.00
33781;BME280;20097;50.832;19.100;2023-02-08T00:47:08;100786.88;;;-2.46;100.00
33781;BME280;20097;50.832;19.100;2023-02-08T00:52:13;100785.06;;;-2.41;100.00
33781;BME280;20097;50.832;19.100;2023-02-08T00:57:20;100778.31;;;-2.45;100.00
33781;BME280;20097;50.832;19.100;2023-02-08T01:02:25;100780.13;;;-2.50;100.00
33781;BME280;20097;50.832;19.100;2023-02-08T01:07:30;100782.84;;;-2.57;100.00
33781;BME280;20097;50.832;19.100;2023-02-08T01:12:38;100779.47;;;-2.59;100.00
33781;BME280;20097;50.832;19.100;2023-02-08T01:17:42;100774.31;;;-2.58;100.00
33781;BME280;20097;50.832;19.100;2023-02-08T01:22:47;100779.31;;;-2.52;100.00
33781;BME280;20097;50.832;19.100;2023-02-08T01:27:53;100778.56;;;-2.55;100.00
33781;BME280;20097;50.832;19.100;2023-02-08T01:32:59;100780.22;;;-2.54;100.00
33781;BME280;20097;50.832;19.100;2023-02-08T01:38:03;100776.03;;;-2.57;100.00
33781;BME280;20097;50.832;19.100;2023-02-08T01:43:14;100770.16;;;-2.62;100.00
33781;BME280;20097;50.832;19.100;2023-02-08T01:48:24;100787.94;;;-2.56;100.00
33781;BME280;20097;50.832;19.100;2023-02-08T01:53:31;100789.63;;;-2.56;100.00
33781;BME280;20097;50.832;19.100;2023-02-08T01:58:42;100786.19;;;-2.54;100.00
33781;BME280;20097;50.832;19.100;2023-02-08T02:03:46;100781.84;;;-2.52;100.00
33781;BME280;20097;50.832;19.100;2023-02-08T02:09:02;100773.31;;;-2.49;100.00
33781;BME280;20097;50.832;19.100;2023-02-08T02:14:10;100763.88;;;-2.47;100.00
33781;BME280;20097;50.832;19.100;2023-02-08T02:19:28;100758.03;;;-2.52;100.00
33781;BME280;20097;50.832;19.100;2023-02-08T02:31:09;100759.94;;;-2.62;100.00
33781;BME280;20097;50.832;19.100;2023-02-08T02:36:27;100754.72;;;-2.57;100.00
33781;BME280;20097;50.832;19.100;2023-02-08T02:41:44;100760.84;;;-2.66;100.00
33781;BME280;20097;50.832;19.100;2023-02-08T02:47:21;100748.75;;;-2.58;100.00
33781;BME280;20097;50.832;19.100;2023-02-08T02:52:37;100761.41;;;-2.52;100.00
33781;BME280;20097;50.832;19.100;2023-02-08T02:57:44;100775.81;;;-2.48;100.00
33781;BME280;20097;50.832;19.100;2023-02-08T03:02:52;100790.41;;;-2.53;100.00
33781;BME280;20097;50.832;19.100;2023-02-08T03:08:17;100804.97;;;-2.56;100.00
33781;BME280;20097;50.832;19.100;2023-02-08T03:13:34;100808.75;;;-2.74;100.00
33781;BME280;20097;50.832;19.100;2023-02-08T03:18:55;100823.28;;;-2.78;100.00
33781;BME280;20097;50.832;19.100;2023-02-08T03:24:18;100817.34;;;-2.80;100.00
33781;BME280;20097;50.832;19.100;2023-02-08T03:29:37;100821.59;;;-2.77;100.00
33781;BME280;20097;50.832;19.100;2023-02-08T03:34:50;100818.06;;;-2.73;100.00
33781;BME280;20097;50.832;19.100;2023-02-08T03:40:03;100812.81;;;-2.64;100.00
33781;BME280;20097;50.832;19.100;2023-02-08T03:45:15;100828.25;;;-2.68;100.00
33781;BME280;20097;50.832;19.100;2023-02-08T03:50:21;100825.59;;;-2.64;100.00
33781;BME280;20097;50.832;19.100;2023-02-08T03:55:30;100821.31;;;-2.63;100.00
33781;BME280;20097;50.832;19.100;2023-02-08T04:00:40;100819.59;;;-2.63;100.00
33781;BME280;20097;50.832;19.100;2023-02-08T04:05:46;100825.31;;;-2.52;100.00
33781;BME280;20097;50.832;19.100;2023-02-08T04:10:52;100829.69;;;-2.55;100.00
33781;BME280;20097;50.832;19.100;2023-02-08T04:15:58;100840.66;;;-2.52;100.00
33781;BME280;20097;50.832;19.100;2023-02-08T04:21:03;100828.88;;;-2.57;100.00
33781;BME280;20097;50.832;19.100;2023-02-08T04:26:08;100837.19;;;-2.48;100.00
33781;BME280;20097;50.832;19.100;2023-02-08T04:31:13;100842.28;;;-2.46;100.00
33781;BME280;20097;50.832;19.100;2023-02-08T04:36:18;100846.50;;;-2.45;100.00
33781;BME280;20097;50.832;19.100;2023-02-08T04:41:24;100849.91;;;-2.45;100.00
33781;BME280;20097;50.832;19.100;2023-02-08T04:46:28;100847.31;;;-2.43;100.00
33781;BME280;20097;50.832;19.100;2023-02-08T04:51:33;100849.00;;;-2.41;100.00
33781;BME280;20097;50.832;19.100;2023-02-08T04:56:39;100844.75;;;-2.43;100.00
33781;BME280;20097;50.832;19.100;2023-02-08T05:01:43;100837.84;;;-2.38;100.00
33781;BME280;20097;50.832;19.100;2023-02-08T05:06:48;100837.91;;;-2.41;100.00
33781;BME280;20097;50.832;19.100;2023-02-08T05:11:54;100846.41;;;-2.39;100.00
33781;BME280;20097;50.832;19.100;2023-02-08T05:16:58;100845.50;;;-2.38;100.00
33781;BME280;20097;50.832;19.100;2023-02-08T05:22:03;100846.38;;;-2.38;100.00
33781;BME280;20097;50.832;19.100;2023-02-08T05:27:09;100847.25;;;-2.40;100.00
33781;BME280;20097;50.832;19.100;2023-02-08T05:32:13;100848.94;;;-2.38;100.00
33781;BME280;20097;50.832;19.100;2023-02-08T05:37:17;100844.63;;;-2.36;100.00
33781;BME280;20097;50.832;19.100;2023-02-08T05:42:23;100858.16;;;-2.32;100.00
33781;BME280;20097;50.832;19.100;2023-02-08T05:47:27;100864.16;;;-2.33;100.00
33781;BME280;20097;50.832;19.100;2023-02-08T05:52:32;100853.78;;;-2.26;100.00
33781;BME280;20097;50.832;19.100;2023-02-08T05:57:37;100866.63;;;-2.29;100.00
33781;BME280;20097;50.832;19.100;2023-02-08T06:02:42;100877.53;;;-2.21;100.00
33781;BME280;20097;50.832;19.100;2023-02-08T06:07:47;100878.25;;;-2.14;100.00
33781;BME280;20097;50.832;19.100;2023-02-08T06:12:52;100896.06;;;-2.10;100.00
33781;BME280;20097;50.832;19.100;2023-02-08T06:17:57;100892.78;;;-2.15;100.00
33781;BME280;20097;50.832;19.100;2023-02-08T06:23:01;100889.31;;;-2.12;100.00
33781;BME280;20097;50.832;19.100;2023-02-08T06:28:07;100888.53;;;-2.16;100.00
33781;BME280;20097;50.832;19.100;2023-02-08T06:33:13;100886.66;;;-2.08;100.00
33781;BME280;20097;50.832;19.100;2023-02-08T06:38:18;100890.94;;;-2.10;100.00
33781;BME280;20097;50.832;19.100;2023-02-08T06:43:25;100902.81;;;-2.06;100.00
33781;BME280;20097;50.832;19.100;2023-02-08T06:48:29;100908.66;;;-1.99;100.00
33781;BME280;20097;50.832;19.100;2023-02-08T06:53:33;100914.72;;;-2.05;100.00
33781;BME280;20097;50.832;19.100;2023-02-08T06:58:39;100922.50;;;-2.09;100.00
33781;BME280;20097;50.832;19.100;2023-02-08T07:03:43;100925.63;;;-1.94;100.00
33781;BME280;20097;50.832;19.100;2023-02-08T07:08:48;100930.81;;;-1.98;100.00
33781;BME280;20097;50.832;19.100;2023-02-08T07:13:54;100927.19;;;-1.88;100.00
33781;BME280;20097;50.832;19.100;2023-02-08T07:18:58;100929.88;;;-1.94;100.00
33781;BME280;20097;50.832;19.100;2023-02-08T07:24:03;100934.75;;;-1.82;100.00
33781;BME280;20097;50.832;19.100;2023-02-08T07:29:08;100928.72;;;-1.80;100.00
33781;BME280;20097;50.832;19.100;2023-02-08T07:34:13;100932.78;;;-1.70;100.00
33781;BME280;20097;50.832;19.100;2023-02-08T07:39:24;100937.25;;;-1.79;100.00
33781;BME280;20097;50.832;19.100;2023-02-08T07:44:29;100931.09;;;-1.72;100.00
33781;BME280;20097;50.832;19.100;2023-02-08T07:49:34;100942.72;;;-1.58;100.00
33781;BME280;20097;50.832;19.100;2023-02-08T07:54:38;100936.63;;;-1.52;100.00
33781;BME280;20097;50.832;19.100;2023-02-08T07:59:44;100936.81;;;-1.60;100.00
33781;BME280;20097;50.832;19.100;2023-02-08T08:04:49;100943.66;;;-1.23;100.00
33781;BME280;20097;50.832;19.100;2023-02-08T08:09:56;100957.19;;;-1.18;100.00
33781;BME280;20097;50.832;19.100;2023-02-08T08:15:03;100959.31;;;-1.35;100.00
33781;BME280;20097;50.832;19.100;2023-02-08T08:20:09;100957.19;;;-1.18;100.00
33781;BME280;20097;50.832;19.100;2023-02-08T08:25:14;100971.88;;;-0.88;100.00
33781;BME280;20097;50.832;19.100;2023-02-08T08:30:20;100974.25;;;-0.81;100.00
33781;BME280;20097;50.832;19.100;2023-02-08T08:35:25;100975.44;;;-0.60;100.00
33781;BME280;20097;50.832;19.100;2023-02-08T08:40:29;100972.63;;;-0.51;100.00
33781;BME280;20097;50.832;19.100;2023-02-08T08:45:35;100988.06;;;-0.21;100.00
33781;BME280;20097;50.832;19.100;2023-02-08T08:50:40;100988.84;;;-0.17;100.00
33781;BME280;20097;50.832;19.100;2023-02-08T08:55:45;100991.06;;;-0.37;100.00
33781;BME280;20097;50.832;19.100;2023-02-08T09:00:51;100993.69;;;-0.39;100.00
33781;BME280;20097;50.832;19.100;2023-02-08T09:05:56;100989.72;;;-0.18;100.00
33781;BME280;20097;50.832;19.100;2023-02-08T09:11:05;100990.34;;;-0.10;100.00
33781;BME280;20097;50.832;19.100;2023-02-08T09:16:13;101003.75;;;0.01;100.00
33781;BME280;20097;50.832;19.100;2023-02-08T09:21:20;101001.16;;;0.01;100.00
33781;BME280;20097;50.832;19.100;2023-02-08T09:26:26;101000.41;;;0.28;100.00
33781;BME280;20097;50.832;19.100;2023-02-08T09:31:34;101002.00;;;0.32;100.00
33781;BME280;20097;50.832;19.100;2023-02-08T09:36:40;100993.22;;;0.39;100.00
33781;BME280;20097;50.832;19.100;2023-02-08T09:42:12;100991.88;;;0.26;100.00
33781;BME280;20097;50.832;19.100;2023-02-08T09:47:22;100995.06;;;0.36;100.00
33781;BME280;20097;50.832;19.100;2023-02-08T09:52:36;100990.19;;;1.09;100.00
33781;BME280;20097;50.832;19.100;2023-02-08T09:57:42;100983.38;;;1.08;100.00
33781;BME280;20097;50.832;19.100;2023-02-08T10:02:50;100998.00;;;0.51;100.00
33781;BME280;20097;50.832;19.100;2023-02-08T10:07:58;100993.81;;;0.18;100.00
33781;BME280;20097;50.832;19.100;2023-02-08T10:13:17;100986.41;;;0.38;100.00
33781;BME280;20097;50.832;19.100;2023-02-08T10:18:44;100988.91;;;0.69;100.00
33781;BME280;20097;50.832;19.100;2023-02-08T10:24:08;100984.75;;;0.65;100.00
33781;BME280;20097;50.832;19.100;2023-02-08T10:30:00;100980.13;;;1.03;100.00
33781;BME280;20097;50.832;19.100;2023-02-08T10:35:13;100983.19;;;1.14;96.15
33781;BME280;20097;50.832;19.100;2023-02-08T10:40:30;100978.94;;;1.13;94.32
33781;BME280;20097;50.832;19.100;2023-02-08T10:45:44;100968.59;;;1.15;98.06
33781;BME280;20097;50.832;19.100;2023-02-08T10:50:53;100975.84;;;0.76;97.45
33781;BME280;20097;50.832;19.100;2023-02-08T10:55:57;100973.22;;;0.78;100.00
33781;BME280;20097;50.832;19.100;2023-02-08T11:01:02;100989.31;;;0.84;100.00
33781;BME280;20097;50.832;19.100;2023-02-08T11:06:25;100978.25;;;0.81;100.00
33781;BME280;20097;50.832;19.100;2023-02-08T11:11:34;100965.50;;;0.78;100.00
33781;BME280;20097;50.832;19.100;2023-02-08T11:16:40;100970.09;;;0.67;99.44
33781;BME280;20097;50.832;19.100;2023-02-08T11:21:49;100971.34;;;0.83;99.85
33781;BME280;20097;50.832;19.100;2023-02-08T11:26:54;100965.53;;;1.04;90.30
33781;BME280;20097;50.832;19.100;2023-02-08T11:32:01;100962.00;;;1.32;86.35
33781;BME280;20097;50.832;19.100;2023-02-08T11:37:16;100956.88;;;1.57;81.38
33781;BME280;20097;50.832;19.100;2023-02-08T11:42:25;100964.31;;;1.65;79.70
33781;BME280;20097;50.832;19.100;2023-02-08T11:47:33;100963.16;;;1.73;80.45
33781;BME280;20097;50.832;19.100;2023-02-08T11:52:41;100964.13;;;1.46;82.66
33781;BME280;20097;50.832;19.100;2023-02-08T11:57:53;100959.03;;;1.45;81.63
33781;BME280;20097;50.832;19.100;2023-02-08T12:02:59;100964.78;;;1.26;85.10
33781;BME280;20097;50.832;19.100;2023-02-08T12:08:16;100954.22;;;1.34;82.99
33781;BME280;20097;50.832;19.100;2023-02-08T12:13:52;100946.56;;;1.32;80.82
33781;BME280;20097;50.832;19.100;2023-02-08T12:19:51;100939.22;;;1.22;80.14
33781;BME280;20097;50.832;19.100;2023-02-08T12:25:14;100922.84;;;1.49;79.51
33781;BME280;20097;50.832;19.100;2023-02-08T12:30:29;100927.69;;;1.81;77.03
33781;BME280;20097;50.832;19.100;2023-02-08T12:35:55;100919.56;;;1.69;75.19
33781;BME280;20097;50.832;19.100;2023-02-08T12:41:20;100909.97;;;1.24;75.52
33781;BME280;20097;50.832;19.100;2023-02-08T12:46:56;100910.47;;;1.09;75.90
33781;BME280;20097;50.832;19.100;2023-02-08T12:52:18;100902.97;;;1.28;78.25
33781;BME280;20097;50.832;19.100;2023-02-08T12:57:30;100905.06;;;1.41;74.99
33781;BME280;20097;50.832;19.100;2023-02-08T13:02:40;100894.97;;;1.11;76.17
33781;BME280;20097;50.832;19.100;2023-02-08T13:07:55;100899.47;;;1.04;77.66
33781;BME280;20097;50.832;19.100;2023-02-08T13:13:11;100901.06;;;1.08;76.13
33781;BME280;20097;50.832;19.100;2023-02-08T13:18:22;100895.13;;;1.06;76.80
33781;BME280;20097;50.832;19.100;2023-02-08T13:23:33;100886.63;;;0.78;78.51
33781;BME280;20097;50.832;19.100;2023-02-08T13:28:58;100878.38;;;0.95;78.49
33781;BME280;20097;50.832;19.100;2023-02-08T13:34:11;100873.72;;;0.80;78.42
33781;BME280;20097;50.832;19.100;2023-02-08T13:39:34;100867.16;;;0.97;77.23
33781;BME280;20097;50.832;19.100;2023-02-08T13:44:41;100874.97;;;0.94;78.98
33781;BME280;20097;50.832;19.100;2023-02-08T13:49:56;100872.91;;;0.79;77.93
33781;BME280;20097;50.832;19.100;2023-02-08T13:55:40;100860.44;;;0.93;76.05
33781;BME280;20097;50.832;19.100;2023-02-08T14:01:17;100857.66;;;0.99;76.89
33781;BME280;20097;50.832;19.100;2023-02-08T14:06:24;100856.13;;;0.94;77.22
33781;BME280;20097;50.832;19.100;2023-02-08T14:11:39;100854.38;;;0.96;78.40
33781;BME280;20097;50.832;19.100;2023-02-08T14:17:18;100859.50;;;0.96;76.89
33781;BME280;20097;50.832;19.100;2023-02-08T14:22:26;100856.44;;;0.85;78.14
33781;BME280;20097;50.832;19.100;2023-02-08T14:27:38;100866.00;;;0.81;76.21
33781;BME280;20097;50.832;19.100;2023-02-08T14:32:48;100850.97;;;0.69;78.17
33781;BME280;20097;50.832;19.100;2023-02-08T14:43:57;100845.38;;;0.57;79.49
33781;BME280;20097;50.832;19.100;2023-02-08T14:49:07;100844.63;;;0.53;80.72
33781;BME280;20097;50.832;19.100;2023-02-08T14:54:20;100849.59;;;0.32;83.49
33781;BME280;20097;50.832;19.100;2023-02-08T14:59:29;100842.59;;;0.09;84.29
33781;BME280;20097;50.832;19.100;2023-02-08T15:04:42;100835.84;;;0.05;85.37
33781;BME280;20097;50.832;19.100;2023-02-08T15:09:47;100828.53;;;-0.07;85.75
33781;BME280;20097;50.832;19.100;2023-02-08T15:14:54;100832.16;;;-0.14;86.91
33781;BME280;20097;50.832;19.100;2023-02-08T15:20:04;100831.88;;;-0.33;87.92
33781;BME280;20097;50.832;19.100;2023-02-08T15:25:24;100822.03;;;-0.48;89.61
33781;BME280;20097;50.832;19.100;2023-02-08T15:30:33;100829.16;;;-0.57;91.45
33781;BME280;20097;50.832;19.100;2023-02-08T15:35:41;100834.53;;;-0.66;92.26
33781;BME280;20097;50.832;19.100;2023-02-08T15:41:03;100824.63;;;-0.78;93.39
33781;BME280;20097;50.832;19.100;2023-02-08T15:46:19;100828.38;;;-0.91;95.22
33781;BME280;20097;50.832;19.100;2023-02-08T15:51:27;100829.53;;;-1.03;96.58
33781;BME280;20097;50.832;19.100;2023-02-08T15:56:34;100833.19;;;-1.11;98.82
33781;BME280;20097;50.832;19.100;2023-02-08T16:01:45;100826.69;;;-1.24;99.75
33781;BME280;20097;50.832;19.100;2023-02-08T16:06:54;100832.88;;;-1.33;100.00
33781;BME280;20097;50.832;19.100;2023-02-08T16:12:00;100841.63;;;-1.42;100.00
33781;BME280;20097;50.832;19.100;2023-02-08T16:17:05;100853.09;;;-1.58;100.00
33781;BME280;20097;50.832;19.100;2023-02-08T16:22:24;100862.69;;;-1.66;100.00
33781;BME280;20097;50.832;19.100;2023-02-08T16:27:31;100859.44;;;-1.74;100.00
33781;BME280;20097;50.832;19.100;2023-02-08T16:32:37;100858.94;;;-1.88;100.00
33781;BME280;20097;50.832;19.100;2023-02-08T16:37:43;100851.31;;;-1.91;100.00
33781;BME280;20097;50.832;19.100;2023-02-08T16:42:48;100859.06;;;-1.94;100.00
33781;BME280;20097;50.832;19.100;2023-02-08T16:47:54;100854.13;;;-2.03;100.00
33781;BME280;20097;50.832;19.100;2023-02-08T16:53:11;100849.19;;;-2.10;100.00
33781;BME280;20097;50.832;19.100;2023-02-08T16:58:16;100851.91;;;-2.18;100.00
33781;BME280;20097;50.832;19.100;2023-02-08T17:03:21;100850.47;;;-2.31;100.00
33781;BME280;20097;50.832;19.100;2023-02-08T17:08:26;100849.94;;;-2.46;100.00
33781;BME280;20097;50.832;19.100;2023-02-08T17:13:30;100846.19;;;-2.73;100.00
33781;BME280;20097;50.832;19.100;2023-02-08T17:18:35;100843.53;;;-2.67;100.00
33781;BME280;20097;50.832;19.100;2023-02-08T17:23:41;100841.81;;;-2.66;100.00
33781;BME280;20097;50.832;19.100;2023-02-08T17:28:47;100842.72;;;-2.69;100.00
33781;BME280;20097;50.832;19.100;2023-02-08T17:33:52;100860.66;;;-2.70;100.00
33781;BME280;20097;50.832;19.100;2023-02-08T17:38:59;100854.88;;;-2.80;100.00
33781;BME280;20097;50.832;19.100;2023-02-08T17:44:04;100853.59;;;-3.04;100.00
33781;BME280;20097;50.832;19.100;2023-02-08T17:49:09;100855.47;;;-3.13;100.00
33781;BME280;20097;50.832;19.100;2023-02-08T17:54:15;100859.03;;;-3.23;100.00
33781;BME280;20097;50.832;19.100;2023-02-08T17:59:19;100856.59;;;-3.29;100.00
33781;BME280;20097;50.832;19.100;2023-02-08T18:04:24;100853.28;;;-3.36;100.00
33781;BME280;20097;50.832;19.100;2023-02-08T18:09:30;100852.50;;;-3.39;100.00
33781;BME280;20097;50.832;19.100;2023-02-08T18:14:36;100863.72;;;-3.49;100.00
33781;BME280;20097;50.832;19.100;2023-02-08T18:19:41;100857.69;;;-3.44;100.00
33781;BME280;20097;50.832;19.100;2023-02-08T18:24:48;100866.94;;;-3.38;100.00
33781;BME280;20097;50.832;19.100;2023-02-08T18:29:55;100865.16;;;-3.33;100.00
33781;BME280;20097;50.832;19.100;2023-02-08T18:35:00;100862.56;;;-3.30;100.00
33781;BME280;20097;50.832;19.100;2023-02-08T18:40:10;100862.69;;;-3.38;100.00
33781;BME280;20097;50.832;19.100;2023-02-08T18:45:14;100851.00;;;-3.52;100.00
33781;BME280;20097;50.832;19.100;2023-02-08T18:50:19;100869.16;;;-3.72;100.00
33781;BME280;20097;50.832;19.100;2023-02-08T18:55:25;100859.84;;;-3.73;100.00
33781;BME280;20097;50.832;19.100;2023-02-08T19:00:29;100854.81;;;-3.80;100.00
33781;BME280;20097;50.832;19.100;2023-02-08T19:05:36;100842.03;;;-3.76;100.00
33781;BME280;20097;50.832;19.100;2023-02-08T19:10:42;100842.06;;;-3.80;100.00
33781;BME280;20097;50.832;19.100;2023-02-08T19:15:47;100840.34;;;-3.78;100.00
33781;BME280;20097;50.832;19.100;2023-02-08T19:20:51;100834.47;;;-3.83;100.00
33781;BME280;20097;50.832;19.100;2023-02-08T19:26:00;100834.47;;;-3.83;100.00
33781;BME280;20097;50.832;19.100;2023-02-08T19:31:07;100809.75;;;-3.80;100.00
33781;BME280;20097;50.832;19.100;2023-02-08T19:36:15;100805.56;;;-3.84;100.00
33781;BME280;20097;50.832;19.100;2023-02-08T19:41:24;100784.34;;;-3.86;100.00
33781;BME280;20097;50.832;19.100;2023-02-08T19:46:30;100783.47;;;-3.85;100.00
33781;BME280;20097;50.832;19.100;2023-02-08T19:51:37;100776.78;;;-3.92;100.00
33781;BME280;20097;50.832;19.100;2023-02-08T19:56:43;100776.78;;;-3.92;100.00
33781;BME280;20097;50.832;19.100;2023-02-08T20:01:47;100780.25;;;-3.97;100.00
33781;BME280;20097;50.832;19.100;2023-02-08T20:06:52;100785.28;;;-3.93;100.00
33781;BME280;20097;50.832;19.100;2023-02-08T20:11:58;100785.31;;;-3.94;100.00
33781;BME280;20097;50.832;19.100;2023-02-08T20:17:03;100776.09;;;-4.04;100.00
33781;BME280;20097;50.832;19.100;2023-02-08T20:22:08;100772.72;;;-4.03;100.00
33781;BME280;20097;50.832;19.100;2023-02-08T20:27:14;100778.69;;;-4.06;100.00
33781;BME280;20097;50.832;19.100;2023-02-08T20:32:19;100781.47;;;-4.23;100.00
33781;BME280;20097;50.832;19.100;2023-02-08T20:37:24;100783.19;;;-4.23;100.00
33781;BME280;20097;50.832;19.100;2023-02-08T20:42:29;100785.00;;;-4.31;100.00
33781;BME280;20097;50.832;19.100;2023-02-08T20:47:35;100776.28;;;-4.79;100.00
33781;BME280;20097;50.832;19.100;2023-02-08T20:52:48;100774.47;;;-4.71;100.00
33781;BME280;20097;50.832;19.100;2023-02-08T20:57:53;100777.38;;;-4.99;100.00
33781;BME280;20097;50.832;19.100;2023-02-08T21:02:58;100772.69;;;-5.41;100.00
33781;BME280;20097;50.832;19.100;2023-02-08T21:08:04;100762.47;;;-5.34;100.00
33781;BME280;20097;50.832;19.100;2023-02-08T21:13:09;100761.59;;;-5.33;100.00
33781;BME280;20097;50.832;19.100;2023-02-08T21:18:14;100768.16;;;-5.11;100.00
33781;BME280;20097;50.832;19.100;2023-02-08T21:23:19;100776.03;;;-5.32;100.00
33781;BME280;20097;50.832;19.100;2023-02-08T21:28:25;100769.25;;;-5.36;100.00
33781;BME280;20097;50.832;19.100;2023-02-08T21:33:29;100766.50;;;-5.15;100.00
33781;BME280;20097;50.832;19.100;2023-02-08T21:38:34;100767.56;;;-5.34;100.00
33781;BME280;20097;50.832;19.100;2023-02-08T21:43:41;100754.13;;;-5.51;100.00
33781;BME280;20097;50.832;19.100;2023-02-08T21:48:46;100740.41;;;-5.35;100.00
33781;BME280;20097;50.832;19.100;2023-02-08T21:54:10;100731.84;;;-5.28;100.00
33781;BME280;20097;50.832;19.100;2023-02-08T21:59:34;100733.56;;;-5.27;100.00
33781;BME280;20097;50.832;19.100;2023-02-08T22:04:40;100733.53;;;-5.28;100.00
33781;BME280;20097;50.832;19.100;2023-02-08T22:10:06;100731.88;;;-5.31;100.00
33781;BME280;20097;50.832;19.100;2023-02-08T22:15:15;100731.06;;;-5.34;100.00
33781;BME280;20097;50.832;19.100;2023-02-08T22:20:21;100733.91;;;-5.62;100.00
33781;BME280;20097;50.832;19.100;2023-02-08T22:25:25;100727.88;;;-5.51;100.00
33781;BME280;20097;50.832;19.100;2023-02-08T22:30:31;100715.13;;;-5.50;100.00
33781;BME280;20097;50.832;19.100;2023-02-08T22:35:37;100710.03;;;-5.48;100.00
33781;BME280;20097;50.832;19.100;2023-02-08T22:40:42;100699.00;;;-5.49;100.00
33781;BME280;20097;50.832;19.100;2023-02-08T22:45:57;100686.31;;;-5.53;100.00
33781;BME280;20097;50.832;19.100;2023-02-08T22:51:05;100684.63;;;-5.54;100.00
33781;BME280;20097;50.832;19.100;2023-02-08T22:56:12;100670.34;;;-5.65;100.00
33781;BME280;20097;50.832;19.100;2023-02-08T23:01:18;100664.44;;;-5.68;100.00
33781;BME280;20097;50.832;19.100;2023-02-08T23:06:23;100647.50;;;-5.72;100.00
33781;BME280;20097;50.832;19.100;2023-02-08T23:11:27;100648.34;;;-5.72;100.00
33781;BME280;20097;50.832;19.100;2023-02-08T23:16:34;100646.69;;;-5.73;100.00
33781;BME280;20097;50.832;19.100;2023-02-08T23:21:38;100622.09;;;-5.75;100.00
33781;BME280;20097;50.832;19.100;2023-02-08T23:26:43;100636.53;;;-5.74;100.00
33781;BME280;20097;50.832;19.100;2023-02-08T23:31:48;100636.53;;;-5.77;100.00
33781;BME280;20097;50.832;19.100;2023-02-08T23:36:53;100641.59;;;-5.76;100.00
33781;BME280;20097;50.832;19.100;2023-02-08T23:41:57;100622.13;;;-5.78;100.00
33781;BME280;20097;50.832;19.100;2023-02-08T23:47:03;100628.94;;;-5.82;100.00
33781;BME280;20097;50.832;19.100;2023-02-08T23:52:08;100632.41;;;-5.84;100.00
33781;BME280;20097;50.832;19.100;2023-02-08T23:57:13;100623.09;;;-5.85;100.00
